Cabo Da Roca — CSZQ — position and weather

sailwx.info

Track history (hours):
 
Tides and Currents Weather Stations Pressure Air Temp Water Temp Dewpoint Dewpoint Depression Visibility Wind Speed Wind Dir Waves Ship Positions

Cabo Da Roca

Last reported at 2018-Jun-05 03:47 UTC. Time now 2018-Jun-20 05:41 UTC.
Position N 39°15' W 009°27'.
Warning: this ship's position is 15 days out of date.

Length 28 m.

Type: Tug. MMSI: 263601790.

Date/timePositionNaut miles runAvg speedWind from/ knotsBaromVisibWave heightAir tempDewpointWater temp
2018-Jun-05 03:47N 39°15' W 009°27'3 9.2
2018-Jun-05 03:30N 39°13' W 009°28'5 9.1
2018-Jun-05 02:59N 39°08' W 009°30'4 9.0
2018-Jun-05 02:30N 39°04' W 009°32'4 8.9
2018-Jun-05 02:00N 38°60' W 009°33'4 9.0
2018-Jun-05 01:30N 38°55' W 009°34'4 8.9
2018-Jun-05 01:00N 38°51' W 009°35'4 8.8
2018-Jun-05 00:30N 38°46' W 009°35'4 8.5
2018-Jun-05 00:00N 38°42' W 009°35'4 8.4
2018-Jun-04 23:28N 38°38' W 009°33'4 8.6
2018-Jun-04 23:00N 38°36' W 009°29'4 9.0
2018-Jun-04 22:30N 38°33' W 009°25'5 9.0
2018-Jun-04 21:56N 38°29' W 009°20'4 9.0
2018-Jun-04 21:30N 38°26' W 009°17'8 8.0
2018-Jun-04 20:32N 38°24' W 009°07'1 9.1
2018-Jun-04 20:25N 38°25' W 009°06'4 9.2
2018-Jun-04 19:59N 38°26' W 009°01'4 9.3
2018-Jun-04 19:30N 38°29' W 008°56'5 0.1
2018-Jun-03 09:56N 38°28' W 008°50'4 0.2
2018-Jun-02 13:31N 38°30' W 008°55'1 9.5
2018-Jun-02 13:25N 38°30' W 008°56'3 7.6
2018-Jun-02 13:00N 38°27' W 008°58'3 5.0
2018-Jun-02 12:30N 38°29' W 008°56'  
Track history (hours):
 
Tides and Currents Weather Stations Pressure Air Temp Water Temp Dewpoint Dewpoint Depression Visibility Wind Speed Wind Dir Waves Ship Positions

Cabo Da Roca

Last reported at 2018-Jun-05 03:47 UTC. Time now 2018-Jun-20 05:41 UTC.
Position N 39°15' W 009°27'.
Warning: this ship's position is 15 days out of date.

Length 28 m.

Type: Tug. MMSI: 263601790.

Date/timePositionNaut miles runAvg speedWind from/ knotsBaromVisibWave heightAir tempDewpointWater temp
2018-Jun-05 03:47N 39°15' W 009°27'3 9.2
2018-Jun-05 03:30N 39°13' W 009°28'5 9.1
2018-Jun-05 02:59N 39°08' W 009°30'4 9.0
2018-Jun-05 02:30N 39°04' W 009°32'4 8.9
2018-Jun-05 02:00N 38°60' W 009°33'4 9.0
2018-Jun-05 01:30N 38°55' W 009°34'4 8.9
2018-Jun-05 01:00N 38°51' W 009°35'4 8.8
2018-Jun-05 00:30N 38°46' W 009°35'4 8.5
2018-Jun-05 00:00N 38°42' W 009°35'4 8.4
2018-Jun-04 23:28N 38°38' W 009°33'4 8.6
2018-Jun-04 23:00N 38°36' W 009°29'4 9.0
2018-Jun-04 22:30N 38°33' W 009°25'5 9.0
2018-Jun-04 21:56N 38°29' W 009°20'4 9.0
2018-Jun-04 21:30N 38°26' W 009°17'8 8.0
2018-Jun-04 20:32N 38°24' W 009°07'1 9.1
2018-Jun-04 20:25N 38°25' W 009°06'4 9.2
2018-Jun-04 19:59N 38°26' W 009°01'4 9.3
2018-Jun-04 19:30N 38°29' W 008°56'5 0.1
2018-Jun-03 09:56N 38°28' W 008°50'4 0.2
2018-Jun-02 13:31N 38°30' W 008°55'1 9.5
2018-Jun-02 13:25N 38°30' W 008°56'3 7.6
2018-Jun-02 13:00N 38°27' W 008°58'3 5.0
2018-Jun-02 12:30N 38°29' W 008°56'  

Dump ship's entire track history